MEA5VC EPWA-OLBA
Flight info
| Callsign | MEA5VC |
|---|---|
| Flight time | 3h 6m |
| Altitude | 40000 |
| Route | EVINA DCT KUKAM DCT BABKO/N0486F410 DCT NARKA DCT ADORU UN739 EKI UW81 YAYLA UL854 KULAR UT39 TOMBI M855 DASNI M601 LCA R19 KUKLA |
| Aircraft | A359/H-SDE2E3GHIJ3J4J5LM1ORWXY/LB1D1 |
Departure
| Time | 2026-05-07 11:50 |
|---|---|
| Airport | Warsaw Chopin Airport (EPWA) |
Arrival
| Time | 2026-05-07 14:57 |
|---|---|
| Airport | Beirut Rafic Hariri International Airport (OLBA) |
| Time | Latitude | Longitude | Altitude | Speed | Heading |
|---|---|---|---|---|---|
| 2026-05-07 11:31 | 52.17213 | 20.96898 | 345 ft | 0 kts | 62° |
| 2026-05-07 11:40 | 52.17212 | 20.96896 | 345 ft | 2 kts | 62° |
| 2026-05-07 11:40 | 52.17203 | 20.96868 | 358 ft | 3 kts | 72° |
| 2026-05-07 11:40 | 52.17199 | 20.96835 | 356 ft | 3 kts | 93° |
| 2026-05-07 11:41 | 52.17203 | 20.96805 | 356 ft | 3 kts | 113° |
| 2026-05-07 11:41 | 52.17213 | 20.96776 | 356 ft | 3 kts | 135° |
| 2026-05-07 11:41 | 52.17215 | 20.96774 | 356 ft | 0 kts | 137° |
| 2026-05-07 11:43 | 52.17197 | 20.96779 | 356 ft | 2 kts | 188° |
| 2026-05-07 11:43 | 52.17174 | 20.96765 | 356 ft | 6 kts | 205° |
| 2026-05-07 11:43 | 52.17141 | 20.96711 | 352 ft | 8 kts | 235° |
| 2026-05-07 11:44 | 52.17089 | 20.96675 | 354 ft | 11 kts | 172° |
| 2026-05-07 11:44 | 52.16996 | 20.96744 | 354 ft | 17 kts | 152° |
| 2026-05-07 11:44 | 52.16875 | 20.96848 | 355 ft | 21 kts | 151° |
| 2026-05-07 11:44 | 52.16740 | 20.96966 | 356 ft | 23 kts | 151° |
| 2026-05-07 11:45 | 52.16682 | 20.97016 | 354 ft | 8 kts | 153° |
| 2026-05-07 11:45 | 52.16622 | 20.97067 | 355 ft | 11 kts | 152° |
| 2026-05-07 11:45 | 52.16543 | 20.97137 | 354 ft | 14 kts | 151° |
| 2026-05-07 11:45 | 52.16395 | 20.97268 | 354 ft | 31 kts | 152° |
| 2026-05-07 11:46 | 52.16248 | 20.97395 | 353 ft | 20 kts | 152° |
| 2026-05-07 11:46 | 52.16120 | 20.97508 | 351 ft | 22 kts | 153° |
| 2026-05-07 11:46 | 52.15979 | 20.97631 | 351 ft | 24 kts | 152° |
| 2026-05-07 11:46 | 52.15825 | 20.97761 | 349 ft | 26 kts | 153° |
| 2026-05-07 11:47 | 52.15660 | 20.97836 | 350 ft | 24 kts | 179° |
| 2026-05-07 11:47 | 52.15557 | 20.97830 | 353 ft | 8 kts | 198° |
| 2026-05-07 11:47 | 52.15547 | 20.97820 | 356 ft | 0 kts | 213° |
| 2026-05-07 11:49 | 52.15538 | 20.97807 | 356 ft | 8 kts | 223° |
| 2026-05-07 11:49 | 52.15506 | 20.97722 | 351 ft | 10 kts | 255° |
| 2026-05-07 11:49 | 52.15531 | 20.97633 | 353 ft | 9 kts | 323° |
| 2026-05-07 11:49 | 52.15590 | 20.97573 | 347 ft | 12 kts | 329° |
| 2026-05-07 11:50 | 52.15826 | 20.97363 | 355 ft | 74 kts | 331° |
| 2026-05-07 11:50 | 52.16215 | 20.97015 | 355 ft | 117 kts | 332° |
| 2026-05-07 11:50 | 52.17112 | 20.96253 | 416 ft | 167 kts | 331° |
| 2026-05-07 11:50 | 52.18155 | 20.95355 | 1179 ft | 166 kts | 331° |
| 2026-05-07 11:51 | 52.19147 | 20.94473 | 2025 ft | 160 kts | 330° |
| 2026-05-07 11:51 | 52.20149 | 20.93538 | 2367 ft | 178 kts | 325° |
| 2026-05-07 11:51 | 52.20993 | 20.91944 | 2702 ft | 198 kts | 292° |
| 2026-05-07 11:51 | 52.21101 | 20.89661 | 3264 ft | 208 kts | 262° |
| 2026-05-07 11:52 | 52.20839 | 20.87259 | 3786 ft | 224 kts | 258° |
| 2026-05-07 11:52 | 52.20526 | 20.84646 | 4148 ft | 244 kts | 258° |
| 2026-05-07 11:52 | 52.20207 | 20.81872 | 4757 ft | 251 kts | 258° |
| 2026-05-07 11:52 | 52.19897 | 20.79066 | 5445 ft | 253 kts | 258° |
| 2026-05-07 11:53 | 52.19588 | 20.76230 | 6173 ft | 255 kts | 258° |
| 2026-05-07 11:53 | 52.19279 | 20.73367 | 6848 ft | 257 kts | 258° |
| 2026-05-07 11:53 | 52.18835 | 20.70536 | 7538 ft | 259 kts | 247° |
| 2026-05-07 11:53 | 52.17846 | 20.68103 | 8255 ft | 260 kts | 224° |
| 2026-05-07 11:54 | 52.16391 | 20.66341 | 8962 ft | 263 kts | 213° |
| 2026-05-07 11:54 | 52.14821 | 20.64780 | 9664 ft | 265 kts | 213° |
| 2026-05-07 11:54 | 52.13234 | 20.63212 | 10257 ft | 270 kts | 213° |
| 2026-05-07 11:54 | 52.11588 | 20.61566 | 10545 ft | 286 kts | 213° |
| 2026-05-07 11:55 | 52.09839 | 20.59805 | 10757 ft | 303 kts | 213° |
| 2026-05-07 11:55 | 52.08007 | 20.57954 | 10997 ft | 318 kts | 213° |
| 2026-05-07 11:55 | 52.06121 | 20.56051 | 11235 ft | 331 kts | 213° |
| 2026-05-07 11:55 | 52.04111 | 20.54022 | 11630 ft | 338 kts | 213° |
| 2026-05-07 11:56 | 52.02103 | 20.51996 | 12118 ft | 341 kts | 212° |
| 2026-05-07 11:56 | 52.00101 | 20.49977 | 12658 ft | 344 kts | 212° |
| 2026-05-07 11:56 | 51.98064 | 20.47925 | 13166 ft | 346 kts | 212° |
| 2026-05-07 11:56 | 51.95993 | 20.45903 | 13693 ft | 348 kts | 209° |
| 2026-05-07 11:57 | 51.93760 | 20.44349 | 14168 ft | 351 kts | 200° |
| 2026-05-07 11:57 | 51.91384 | 20.43357 | 14578 ft | 356 kts | 190° |
| 2026-05-07 11:57 | 51.88890 | 20.43312 | 15016 ft | 364 kts | 174° |
| 2026-05-07 11:57 | 51.86416 | 20.44325 | 15480 ft | 370 kts | 165° |
| 2026-05-07 11:58 | 51.84001 | 20.45841 | 15908 ft | 374 kts | 160° |
| 2026-05-07 11:58 | 51.81625 | 20.47621 | 16351 ft | 378 kts | 158° |
| 2026-05-07 11:58 | 51.79252 | 20.49518 | 16798 ft | 381 kts | 157° |
| 2026-05-07 11:58 | 51.76880 | 20.51430 | 17235 ft | 384 kts | 157° |
| 2026-05-07 11:59 | 51.74493 | 20.53324 | 17673 ft | 386 kts | 158° |
| 2026-05-07 11:59 | 51.72065 | 20.55210 | 18085 ft | 389 kts | 158° |
| 2026-05-07 11:59 | 51.69572 | 20.56888 | 18422 ft | 388 kts | 169° |
| 2026-05-07 11:59 | 51.66917 | 20.57199 | 18820 ft | 382 kts | 189° |
| 2026-05-07 12:00 | 51.64349 | 20.56283 | 19244 ft | 380 kts | 198° |
| 2026-05-07 12:00 | 51.61786 | 20.55200 | 19646 ft | 382 kts | 194° |
| 2026-05-07 12:00 | 51.59145 | 20.54566 | 20037 ft | 386 kts | 187° |
| 2026-05-07 12:00 | 51.56445 | 20.54521 | 20431 ft | 390 kts | 180° |
| 2026-05-07 12:01 | 51.53737 | 20.54963 | 20816 ft | 393 kts | 175° |
| 2026-05-07 12:01 | 51.51028 | 20.55724 | 21182 ft | 397 kts | 172° |
| 2026-05-07 12:01 | 51.48319 | 20.56651 | 21553 ft | 399 kts | 171° |
| 2026-05-07 12:01 | 51.45606 | 20.57639 | 21923 ft | 400 kts | 171° |
| 2026-05-07 12:02 | 51.42881 | 20.58630 | 22298 ft | 402 kts | 171° |
| 2026-05-07 12:02 | 51.40150 | 20.59600 | 22665 ft | 403 kts | 171° |
| 2026-05-07 12:02 | 51.37408 | 20.60546 | 23021 ft | 404 kts | 172° |
| 2026-05-07 12:02 | 51.34656 | 20.61474 | 23384 ft | 405 kts | 172° |
| 2026-05-07 12:03 | 51.31896 | 20.62390 | 23696 ft | 406 kts | 172° |
| 2026-05-07 12:03 | 51.29119 | 20.63305 | 23988 ft | 408 kts | 172° |
| 2026-05-07 12:03 | 51.26336 | 20.64220 | 24289 ft | 409 kts | 172° |
| 2026-05-07 12:03 | 51.23546 | 20.65137 | 24611 ft | 410 kts | 172° |
| 2026-05-07 12:04 | 51.20744 | 20.66058 | 24892 ft | 411 kts | 172° |
| 2026-05-07 12:04 | 51.17934 | 20.66981 | 25180 ft | 413 kts | 172° |
| 2026-05-07 12:04 | 51.15118 | 20.67905 | 25473 ft | 414 kts | 172° |
| 2026-05-07 12:04 | 51.12288 | 20.68833 | 25776 ft | 416 kts | 172° |
| 2026-05-07 12:05 | 51.09448 | 20.69763 | 26088 ft | 417 kts | 172° |
| 2026-05-07 12:05 | 51.06638 | 20.70682 | 26419 ft | 418 kts | 172° |
| 2026-05-07 12:05 | 51.03779 | 20.71616 | 26749 ft | 420 kts | 172° |
| 2026-05-07 12:05 | 51.00908 | 20.72553 | 27104 ft | 421 kts | 171° |
| 2026-05-07 12:06 | 50.98033 | 20.73490 | 27437 ft | 423 kts | 171° |
| 2026-05-07 12:06 | 50.95146 | 20.74430 | 27824 ft | 424 kts | 171° |
| 2026-05-07 12:06 | 50.92252 | 20.75371 | 28212 ft | 426 kts | 171° |
| 2026-05-07 12:06 | 50.89339 | 20.76317 | 28578 ft | 428 kts | 171° |
| 2026-05-07 12:07 | 50.86417 | 20.77264 | 28951 ft | 430 kts | 171° |
| 2026-05-07 12:07 | 50.83476 | 20.78217 | 29362 ft | 431 kts | 171° |
| 2026-05-07 12:07 | 50.80530 | 20.79170 | 29769 ft | 433 kts | 171° |
| 2026-05-07 12:07 | 50.77569 | 20.80126 | 30135 ft | 435 kts | 171° |
| 2026-05-07 12:08 | 50.74595 | 20.81086 | 30431 ft | 438 kts | 171° |
| 2026-05-07 12:08 | 50.71601 | 20.82050 | 30721 ft | 441 kts | 171° |
| 2026-05-07 12:08 | 50.68580 | 20.83021 | 31028 ft | 443 kts | 171° |
| 2026-05-07 12:08 | 50.65549 | 20.83995 | 31314 ft | 446 kts | 171° |
| 2026-05-07 12:09 | 50.62498 | 20.84974 | 31589 ft | 449 kts | 171° |
| 2026-05-07 12:09 | 50.59429 | 20.85958 | 31866 ft | 451 kts | 171° |
| 2026-05-07 12:09 | 50.56337 | 20.86948 | 32118 ft | 454 kts | 172° |
| 2026-05-07 12:09 | 50.53231 | 20.87940 | 32364 ft | 457 kts | 172° |
| 2026-05-07 12:10 | 50.50111 | 20.88936 | 32638 ft | 459 kts | 172° |
| 2026-05-07 12:10 | 50.46982 | 20.89935 | 33023 ft | 458 kts | 172° |
| 2026-05-07 12:10 | 50.43864 | 20.90930 | 33401 ft | 457 kts | 172° |
| 2026-05-07 12:10 | 50.40748 | 20.91923 | 33776 ft | 457 kts | 172° |
| 2026-05-07 12:11 | 50.37632 | 20.92913 | 34129 ft | 457 kts | 172° |
| 2026-05-07 12:11 | 50.34515 | 20.93902 | 34443 ft | 457 kts | 172° |
| 2026-05-07 12:11 | 50.31432 | 20.94878 | 34756 ft | 457 kts | 172° |
| 2026-05-07 12:11 | 50.28310 | 20.95865 | 35059 ft | 457 kts | 172° |
| 2026-05-07 12:12 | 50.25151 | 20.96862 | 35384 ft | 457 kts | 172° |
| 2026-05-07 12:12 | 50.22033 | 20.97846 | 35695 ft | 457 kts | 172° |
| 2026-05-07 12:12 | 50.18913 | 20.98829 | 36027 ft | 457 kts | 172° |
| 2026-05-07 12:12 | 50.15792 | 20.99810 | 36335 ft | 457 kts | 172° |
| 2026-05-07 12:13 | 50.12677 | 21.00789 | 36642 ft | 457 kts | 172° |
| 2026-05-07 12:13 | 50.09599 | 21.01755 | 36955 ft | 457 kts | 172° |
| 2026-05-07 12:13 | 50.06479 | 21.02733 | 37281 ft | 457 kts | 172° |
| 2026-05-07 12:13 | 50.03365 | 21.03707 | 37589 ft | 456 kts | 172° |
| 2026-05-07 12:14 | 50.00253 | 21.04680 | 37899 ft | 456 kts | 172° |
| 2026-05-07 12:14 | 49.97142 | 21.05650 | 38208 ft | 456 kts | 172° |
| 2026-05-07 12:14 | 49.94034 | 21.06619 | 38507 ft | 455 kts | 172° |
| 2026-05-07 12:14 | 49.90927 | 21.07586 | 38743 ft | 455 kts | 172° |
| 2026-05-07 12:15 | 49.87821 | 21.08551 | 38931 ft | 456 kts | 172° |
| 2026-05-07 12:15 | 49.84702 | 21.09519 | 39085 ft | 457 kts | 172° |
| 2026-05-07 12:15 | 49.81585 | 21.10485 | 39247 ft | 458 kts | 172° |
| 2026-05-07 12:15 | 49.78461 | 21.11452 | 39413 ft | 459 kts | 172° |
| 2026-05-07 12:16 | 49.75328 | 21.12421 | 39581 ft | 459 kts | 172° |
| 2026-05-07 12:16 | 49.72193 | 21.13389 | 39745 ft | 460 kts | 172° |
| 2026-05-07 12:16 | 49.69052 | 21.14357 | 39907 ft | 461 kts | 172° |
| 2026-05-07 12:16 | 49.65902 | 21.15328 | 40046 ft | 462 kts | 172° |
| 2026-05-07 12:17 | 49.62748 | 21.16298 | 40204 ft | 462 kts | 172° |
| 2026-05-07 12:17 | 49.59591 | 21.17268 | 40363 ft | 463 kts | 172° |
| 2026-05-07 12:17 | 49.56431 | 21.18237 | 40508 ft | 464 kts | 172° |
| 2026-05-07 12:17 | 49.53263 | 21.19208 | 40674 ft | 464 kts | 172° |
| 2026-05-07 12:18 | 49.50093 | 21.20178 | 40815 ft | 465 kts | 172° |
| 2026-05-07 12:18 | 49.46914 | 21.21149 | 40934 ft | 467 kts | 172° |
| 2026-05-07 12:18 | 49.43727 | 21.22120 | 40943 ft | 467 kts | 172° |
| 2026-05-07 12:19 | 49.37357 | 21.24061 | 40946 ft | 466 kts | 172° |
| 2026-05-07 12:19 | 49.30992 | 21.25995 | 40944 ft | 466 kts | 172° |
| 2026-05-07 12:20 | 49.24622 | 21.27925 | 40944 ft | 467 kts | 172° |
| 2026-05-07 12:20 | 49.18247 | 21.29851 | 40944 ft | 467 kts | 172° |
| 2026-05-07 12:21 | 49.11887 | 21.31769 | 40948 ft | 467 kts | 172° |
| 2026-05-07 12:21 | 49.05543 | 21.33675 | 40953 ft | 468 kts | 172° |
| 2026-05-07 12:22 | 48.99162 | 21.35588 | 40950 ft | 468 kts | 172° |
| 2026-05-07 12:22 | 48.92774 | 21.37497 | 40955 ft | 468 kts | 172° |
| 2026-05-07 12:23 | 48.86381 | 21.39404 | 40958 ft | 468 kts | 172° |
| 2026-05-07 12:23 | 48.79987 | 21.41306 | 40959 ft | 468 kts | 172° |
| 2026-05-07 12:24 | 48.73590 | 21.43204 | 40965 ft | 468 kts | 172° |
| 2026-05-07 12:24 | 48.67192 | 21.45097 | 40961 ft | 468 kts | 172° |
| 2026-05-07 12:25 | 48.60835 | 21.46974 | 40962 ft | 469 kts | 172° |
| 2026-05-07 12:25 | 48.54584 | 21.48814 | 40963 ft | 469 kts | 172° |
| 2026-05-07 12:26 | 48.48411 | 21.50627 | 40965 ft | 469 kts | 172° |
| 2026-05-07 12:26 | 48.42103 | 21.52475 | 40964 ft | 469 kts | 172° |
| 2026-05-07 12:27 | 48.35837 | 21.54305 | 40968 ft | 470 kts | 172° |
| 2026-05-07 12:27 | 48.29545 | 21.56139 | 40972 ft | 470 kts | 172° |
| 2026-05-07 12:28 | 48.23298 | 21.57955 | 40990 ft | 470 kts | 172° |
| 2026-05-07 12:28 | 48.17104 | 21.59752 | 41000 ft | 470 kts | 172° |
| 2026-05-07 12:29 | 48.10841 | 21.61564 | 41007 ft | 471 kts | 172° |
| 2026-05-07 12:29 | 48.04642 | 21.63353 | 41024 ft | 471 kts | 172° |
| 2026-05-07 12:30 | 47.98360 | 21.65161 | 41020 ft | 471 kts | 172° |
| 2026-05-07 12:30 | 47.92035 | 21.66977 | 41019 ft | 471 kts | 172° |
| 2026-05-07 12:31 | 47.85785 | 21.68767 | 41018 ft | 472 kts | 172° |
| 2026-05-07 12:31 | 47.79430 | 21.70583 | 41008 ft | 472 kts | 172° |
| 2026-05-07 12:32 | 47.73167 | 21.72368 | 41007 ft | 472 kts | 172° |
| 2026-05-07 12:32 | 47.66831 | 21.74169 | 41013 ft | 472 kts | 172° |
| 2026-05-07 12:33 | 47.57481 | 21.76819 | 41019 ft | 472 kts | 172° |
| 2026-05-07 12:33 | 47.51195 | 21.78595 | 41017 ft | 472 kts | 172° |
| 2026-05-07 12:34 | 47.44984 | 21.80347 | 41018 ft | 472 kts | 172° |
| 2026-05-07 12:34 | 47.38690 | 21.82117 | 41016 ft | 473 kts | 172° |
| 2026-05-07 12:35 | 47.32432 | 21.83872 | 41014 ft | 473 kts | 172° |
| 2026-05-07 12:35 | 47.26186 | 21.85982 | 41029 ft | 476 kts | 164° |
| 2026-05-07 12:36 | 47.21365 | 21.89280 | 41034 ft | 481 kts | 153° |
| 2026-05-07 12:36 | 47.15795 | 21.94510 | 41043 ft | 485 kts | 149° |
| 2026-05-07 12:37 | 47.09416 | 22.00948 | 41044 ft | 485 kts | 149° |
| 2026-05-07 12:37 | 47.03990 | 22.06325 | 41044 ft | 485 kts | 149° |
| 2026-05-07 12:38 | 46.98373 | 22.11791 | 41043 ft | 484 kts | 150° |
| 2026-05-07 12:38 | 46.92782 | 22.17192 | 41046 ft | 485 kts | 150° |
| 2026-05-07 12:39 | 46.87155 | 22.22614 | 41038 ft | 484 kts | 150° |
| 2026-05-07 12:39 | 46.81531 | 22.28025 | 41033 ft | 484 kts | 150° |
| 2026-05-07 12:40 | 46.76851 | 22.32517 | 41037 ft | 484 kts | 150° |
| 2026-05-07 12:40 | 46.71220 | 22.37910 | 41036 ft | 484 kts | 150° |
| 2026-05-07 12:41 | 46.65585 | 22.43294 | 41038 ft | 484 kts | 150° |
| 2026-05-07 12:41 | 46.59947 | 22.48666 | 41038 ft | 484 kts | 150° |
| 2026-05-07 12:42 | 46.54305 | 22.54030 | 41038 ft | 485 kts | 150° |
| 2026-05-07 12:42 | 46.48660 | 22.59382 | 41039 ft | 485 kts | 150° |
| 2026-05-07 12:43 | 46.43009 | 22.64727 | 41041 ft | 485 kts | 150° |
| 2026-05-07 12:43 | 46.37351 | 22.70065 | 41042 ft | 485 kts | 150° |
| 2026-05-07 12:44 | 46.31689 | 22.75394 | 41042 ft | 486 kts | 150° |
| 2026-05-07 12:44 | 46.26021 | 22.80714 | 41037 ft | 486 kts | 150° |
| 2026-05-07 12:45 | 46.20390 | 22.85986 | 41036 ft | 486 kts | 150° |
| 2026-05-07 12:45 | 46.14719 | 22.91282 | 41035 ft | 486 kts | 150° |
| 2026-05-07 12:46 | 46.09042 | 22.96572 | 41031 ft | 486 kts | 150° |
| 2026-05-07 12:46 | 46.03356 | 23.01856 | 41034 ft | 486 kts | 150° |
| 2026-05-07 12:47 | 45.97668 | 23.07129 | 41027 ft | 486 kts | 150° |
| 2026-05-07 12:47 | 45.91974 | 23.12394 | 41029 ft | 486 kts | 150° |
| 2026-05-07 12:48 | 45.86281 | 23.17645 | 41030 ft | 486 kts | 150° |
| 2026-05-07 12:48 | 45.80581 | 23.22890 | 41032 ft | 486 kts | 150° |
| 2026-05-07 12:49 | 45.74882 | 23.28121 | 41029 ft | 487 kts | 150° |
| 2026-05-07 12:49 | 45.69180 | 23.33344 | 41042 ft | 486 kts | 150° |
| 2026-05-07 12:50 | 45.63511 | 23.38522 | 41043 ft | 486 kts | 150° |
| 2026-05-07 12:50 | 45.57800 | 23.43726 | 41050 ft | 486 kts | 150° |
| 2026-05-07 12:51 | 45.52096 | 23.48910 | 41055 ft | 486 kts | 150° |
| 2026-05-07 12:51 | 45.46383 | 23.54090 | 41053 ft | 486 kts | 150° |
| 2026-05-07 12:52 | 45.40678 | 23.59251 | 41054 ft | 486 kts | 150° |
| 2026-05-07 12:52 | 45.34969 | 23.64404 | 41055 ft | 486 kts | 150° |
| 2026-05-07 12:53 | 45.29256 | 23.69546 | 41051 ft | 486 kts | 150° |
| 2026-05-07 12:53 | 45.23578 | 23.74644 | 41071 ft | 486 kts | 150° |
| 2026-05-07 12:54 | 45.17830 | 23.79795 | 41062 ft | 486 kts | 150° |
| 2026-05-07 12:54 | 45.12156 | 23.84867 | 41058 ft | 486 kts | 150° |
| 2026-05-07 12:55 | 45.06436 | 23.89965 | 41054 ft | 486 kts | 150° |
| 2026-05-07 12:55 | 45.00717 | 23.95051 | 41052 ft | 486 kts | 150° |
| 2026-05-07 12:56 | 44.94995 | 24.00128 | 41049 ft | 486 kts | 150° |
| 2026-05-07 12:56 | 44.89272 | 24.05194 | 41042 ft | 485 kts | 150° |
| 2026-05-07 12:57 | 44.83548 | 24.10249 | 41039 ft | 485 kts | 150° |
| 2026-05-07 12:57 | 44.77818 | 24.15298 | 41038 ft | 485 kts | 150° |
| 2026-05-07 12:58 | 44.72094 | 24.20328 | 41038 ft | 485 kts | 150° |
| 2026-05-07 12:58 | 44.66363 | 24.25351 | 41036 ft | 485 kts | 150° |
| 2026-05-07 12:59 | 44.60631 | 24.30366 | 41038 ft | 485 kts | 150° |
| 2026-05-07 12:59 | 44.54898 | 24.35370 | 41035 ft | 485 kts | 151° |
| 2026-05-07 13:00 | 44.49161 | 24.40365 | 41033 ft | 486 kts | 151° |
| 2026-05-07 13:00 | 44.43418 | 24.45353 | 41034 ft | 486 kts | 151° |
| 2026-05-07 13:01 | 44.37674 | 24.50330 | 41032 ft | 486 kts | 151° |
| 2026-05-07 13:01 | 44.31916 | 24.55309 | 41031 ft | 486 kts | 151° |
| 2026-05-07 13:02 | 44.26193 | 24.60246 | 41031 ft | 487 kts | 151° |
| 2026-05-07 13:02 | 44.20424 | 24.65210 | 41026 ft | 487 kts | 151° |
| 2026-05-07 13:03 | 44.14652 | 24.70166 | 41025 ft | 487 kts | 151° |
| 2026-05-07 13:03 | 44.08877 | 24.75113 | 41024 ft | 488 kts | 151° |
| 2026-05-07 13:04 | 44.03087 | 24.80060 | 41022 ft | 488 kts | 151° |
| 2026-05-07 13:04 | 43.97299 | 24.84995 | 41021 ft | 488 kts | 151° |
| 2026-05-07 13:05 | 43.91497 | 24.89930 | 41021 ft | 489 kts | 151° |
| 2026-05-07 13:05 | 43.85698 | 24.94852 | 41018 ft | 489 kts | 151° |
| 2026-05-07 13:06 | 43.79892 | 24.99768 | 41018 ft | 489 kts | 151° |
| 2026-05-07 13:06 | 43.74082 | 25.04675 | 41016 ft | 490 kts | 151° |
| 2026-05-07 13:07 | 43.68262 | 25.09580 | 41015 ft | 490 kts | 151° |
| 2026-05-07 13:07 | 43.62440 | 25.14477 | 41009 ft | 490 kts | 151° |
| 2026-05-07 13:08 | 43.56607 | 25.19370 | 41008 ft | 490 kts | 151° |
| 2026-05-07 13:08 | 43.50775 | 25.24250 | 41006 ft | 491 kts | 151° |
| 2026-05-07 13:09 | 43.44937 | 25.29125 | 41006 ft | 491 kts | 151° |
| 2026-05-07 13:09 | 43.39130 | 25.33963 | 41006 ft | 491 kts | 151° |
| 2026-05-07 13:10 | 43.33282 | 25.38824 | 41007 ft | 492 kts | 151° |
| 2026-05-07 13:10 | 43.27430 | 25.43678 | 41011 ft | 492 kts | 151° |
| 2026-05-07 13:11 | 43.21563 | 25.48533 | 41015 ft | 492 kts | 151° |
| 2026-05-07 13:11 | 43.15691 | 25.53382 | 41019 ft | 493 kts | 151° |
| 2026-05-07 13:12 | 43.09811 | 25.58225 | 41019 ft | 493 kts | 151° |
| 2026-05-07 13:12 | 43.03930 | 25.63057 | 41021 ft | 494 kts | 151° |
| 2026-05-07 13:13 | 42.98042 | 25.67887 | 41018 ft | 494 kts | 151° |
| 2026-05-07 13:13 | 42.92145 | 25.72712 | 41017 ft | 494 kts | 152° |
| 2026-05-07 13:14 | 42.86244 | 25.77530 | 41027 ft | 494 kts | 152° |
| 2026-05-07 13:14 | 42.80327 | 25.82349 | 41031 ft | 495 kts | 152° |
| 2026-05-07 13:15 | 42.74409 | 25.87157 | 41054 ft | 496 kts | 152° |
| 2026-05-07 13:15 | 42.68486 | 25.91958 | 41054 ft | 496 kts | 152° |
| 2026-05-07 13:16 | 42.62561 | 25.96753 | 41051 ft | 496 kts | 152° |
| 2026-05-07 13:16 | 42.56631 | 26.01540 | 41061 ft | 496 kts | 152° |
| 2026-05-07 13:17 | 42.50690 | 26.06325 | 41058 ft | 497 kts | 152° |
| 2026-05-07 13:17 | 42.44761 | 26.11088 | 41058 ft | 497 kts | 152° |
| 2026-05-07 13:18 | 42.38851 | 26.15828 | 41061 ft | 497 kts | 152° |
| 2026-05-07 13:18 | 42.32900 | 26.20589 | 41063 ft | 497 kts | 152° |
| 2026-05-07 13:19 | 42.26941 | 26.25345 | 41061 ft | 498 kts | 152° |
| 2026-05-07 13:19 | 42.20974 | 26.30098 | 41067 ft | 498 kts | 152° |
| 2026-05-07 13:20 | 42.14995 | 26.34850 | 41067 ft | 499 kts | 152° |
| 2026-05-07 13:20 | 42.09012 | 26.39595 | 41062 ft | 499 kts | 152° |
| 2026-05-07 13:21 | 42.03022 | 26.44334 | 41067 ft | 500 kts | 152° |
| 2026-05-07 13:21 | 41.97025 | 26.49069 | 41064 ft | 500 kts | 152° |
| 2026-05-07 13:22 | 41.91023 | 26.53796 | 41069 ft | 500 kts | 152° |
| 2026-05-07 13:22 | 41.85031 | 26.58557 | 41071 ft | 501 kts | 149° |
| 2026-05-07 13:23 | 41.79341 | 26.63882 | 41066 ft | 503 kts | 146° |
| 2026-05-07 13:23 | 41.73707 | 26.69438 | 41068 ft | 503 kts | 146° |
| 2026-05-07 13:24 | 41.68024 | 26.74913 | 41068 ft | 503 kts | 147° |
| 2026-05-07 13:24 | 41.62306 | 26.80313 | 41074 ft | 503 kts | 147° |
| 2026-05-07 13:25 | 41.56568 | 26.85688 | 41070 ft | 504 kts | 147° |
| 2026-05-07 13:25 | 41.50825 | 26.91058 | 41069 ft | 504 kts | 147° |
| 2026-05-07 13:26 | 41.45076 | 26.96424 | 41073 ft | 505 kts | 147° |
| 2026-05-07 13:26 | 41.39319 | 27.01787 | 41077 ft | 505 kts | 147° |
| 2026-05-07 13:27 | 41.33555 | 27.07152 | 41078 ft | 505 kts | 147° |
| 2026-05-07 13:27 | 41.27785 | 27.12509 | 41077 ft | 506 kts | 147° |
| 2026-05-07 13:28 | 41.22984 | 27.16956 | 41078 ft | 506 kts | 147° |
| 2026-05-07 13:28 | 41.17204 | 27.22300 | 41082 ft | 506 kts | 147° |
| 2026-05-07 13:29 | 41.11417 | 27.27636 | 41082 ft | 507 kts | 147° |
| 2026-05-07 13:29 | 41.05620 | 27.32969 | 41088 ft | 507 kts | 147° |
| 2026-05-07 13:30 | 40.99821 | 27.38291 | 41090 ft | 507 kts | 147° |
| 2026-05-07 13:30 | 40.93822 | 27.43156 | 41091 ft | 504 kts | 159° |
| 2026-05-07 13:31 | 40.87392 | 27.46810 | 41090 ft | 503 kts | 161° |
| 2026-05-07 13:31 | 40.80890 | 27.50242 | 41097 ft | 503 kts | 161° |
| 2026-05-07 13:32 | 40.74420 | 27.53628 | 41098 ft | 503 kts | 161° |
| 2026-05-07 13:32 | 40.67909 | 27.57057 | 41100 ft | 504 kts | 161° |
| 2026-05-07 13:33 | 40.61398 | 27.60496 | 41101 ft | 504 kts | 161° |
| 2026-05-07 13:33 | 40.54889 | 27.63929 | 41098 ft | 504 kts | 161° |
| 2026-05-07 13:34 | 40.45101 | 27.69076 | 41102 ft | 505 kts | 161° |
| 2026-05-07 13:35 | 40.38574 | 27.72499 | 41099 ft | 505 kts | 161° |
| 2026-05-07 13:35 | 40.32040 | 27.75917 | 41099 ft | 506 kts | 161° |
| 2026-05-07 13:36 | 40.25503 | 27.79332 | 41100 ft | 506 kts | 161° |
| 2026-05-07 13:36 | 40.18959 | 27.82742 | 41099 ft | 506 kts | 161° |
| 2026-05-07 13:37 | 40.12402 | 27.86152 | 41096 ft | 507 kts | 161° |
| 2026-05-07 13:37 | 40.05852 | 27.89551 | 41095 ft | 507 kts | 161° |
| 2026-05-07 13:38 | 39.99336 | 27.92925 | 41098 ft | 507 kts | 161° |
| 2026-05-07 13:38 | 39.92776 | 27.96315 | 41097 ft | 507 kts | 161° |
| 2026-05-07 13:39 | 39.86202 | 27.99706 | 41104 ft | 508 kts | 161° |
| 2026-05-07 13:39 | 39.79634 | 28.03036 | 41101 ft | 507 kts | 162° |
| 2026-05-07 13:40 | 39.73031 | 28.06307 | 41104 ft | 508 kts | 162° |
| 2026-05-07 13:40 | 39.66426 | 28.09580 | 41103 ft | 508 kts | 162° |
| 2026-05-07 13:41 | 39.59821 | 28.12860 | 41105 ft | 508 kts | 162° |
| 2026-05-07 13:41 | 39.53216 | 28.16138 | 41110 ft | 509 kts | 162° |
| 2026-05-07 13:42 | 39.46603 | 28.19414 | 41115 ft | 509 kts | 162° |
| 2026-05-07 13:42 | 39.39981 | 28.22687 | 41129 ft | 509 kts | 162° |
| 2026-05-07 13:43 | 39.33351 | 28.25958 | 41137 ft | 510 kts | 162° |
| 2026-05-07 13:43 | 39.26723 | 28.29222 | 41145 ft | 510 kts | 162° |
| 2026-05-07 13:44 | 39.20086 | 28.32466 | 41140 ft | 510 kts | 162° |
| 2026-05-07 13:44 | 39.13491 | 28.35675 | 41144 ft | 510 kts | 162° |
| 2026-05-07 13:45 | 39.06800 | 28.38928 | 41146 ft | 510 kts | 162° |
| 2026-05-07 13:45 | 39.00163 | 28.42198 | 41146 ft | 511 kts | 161° |
| 2026-05-07 13:46 | 38.93544 | 28.45551 | 41148 ft | 512 kts | 161° |
| 2026-05-07 13:46 | 38.86962 | 28.48885 | 41146 ft | 512 kts | 161° |
| 2026-05-07 13:47 | 38.80334 | 28.52220 | 41148 ft | 512 kts | 161° |
| 2026-05-07 13:47 | 38.73695 | 28.55548 | 41144 ft | 512 kts | 161° |
| 2026-05-07 13:48 | 38.67051 | 28.58871 | 41143 ft | 512 kts | 161° |
| 2026-05-07 13:48 | 38.60420 | 28.62218 | 41141 ft | 514 kts | 159° |
| 2026-05-07 13:49 | 38.54215 | 28.66829 | 41147 ft | 517 kts | 148° |
| 2026-05-07 13:49 | 38.48290 | 28.72069 | 41151 ft | 519 kts | 146° |
| 2026-05-07 13:50 | 38.42400 | 28.77401 | 41149 ft | 519 kts | 146° |
| 2026-05-07 13:50 | 38.36497 | 28.82710 | 41146 ft | 519 kts | 147° |
| 2026-05-07 13:51 | 38.30573 | 28.87995 | 41147 ft | 520 kts | 147° |
| 2026-05-07 13:51 | 38.24645 | 28.93263 | 41146 ft | 520 kts | 147° |
| 2026-05-07 13:52 | 38.18701 | 28.98533 | 41147 ft | 520 kts | 147° |
| 2026-05-07 13:52 | 38.12758 | 29.03794 | 41153 ft | 521 kts | 147° |
| 2026-05-07 13:53 | 38.06808 | 29.09050 | 41153 ft | 521 kts | 147° |
| 2026-05-07 13:53 | 38.00850 | 29.14303 | 41155 ft | 521 kts | 147° |
| 2026-05-07 13:54 | 37.94893 | 29.19545 | 41156 ft | 521 kts | 147° |
| 2026-05-07 13:54 | 37.88936 | 29.24776 | 41157 ft | 521 kts | 147° |
| 2026-05-07 13:55 | 37.82966 | 29.30010 | 41167 ft | 521 kts | 147° |
| 2026-05-07 13:55 | 37.77041 | 29.35201 | 41169 ft | 522 kts | 147° |
| 2026-05-07 13:56 | 37.71032 | 29.40447 | 41172 ft | 522 kts | 147° |
| 2026-05-07 13:56 | 37.65099 | 29.45618 | 41170 ft | 522 kts | 147° |
| 2026-05-07 13:57 | 37.59117 | 29.50822 | 41171 ft | 522 kts | 147° |
| 2026-05-07 13:57 | 37.53143 | 29.56009 | 41167 ft | 521 kts | 147° |
| 2026-05-07 13:58 | 37.47164 | 29.61191 | 41163 ft | 522 kts | 147° |
| 2026-05-07 13:58 | 37.41183 | 29.66364 | 41156 ft | 522 kts | 147° |
| 2026-05-07 13:59 | 37.35196 | 29.71532 | 41162 ft | 522 kts | 147° |
| 2026-05-07 13:59 | 37.29203 | 29.76706 | 41150 ft | 522 kts | 147° |
| 2026-05-07 14:00 | 37.23213 | 29.81861 | 41158 ft | 522 kts | 147° |
| 2026-05-07 14:00 | 37.17214 | 29.87014 | 41159 ft | 522 kts | 147° |
| 2026-05-07 14:01 | 37.11212 | 29.92160 | 41160 ft | 522 kts | 147° |
| 2026-05-07 14:01 | 37.05215 | 29.97294 | 41152 ft | 522 kts | 147° |
| 2026-05-07 14:02 | 36.99220 | 30.02428 | 41147 ft | 522 kts | 147° |
| 2026-05-07 14:02 | 36.93217 | 30.07559 | 41147 ft | 522 kts | 147° |
| 2026-05-07 14:03 | 36.87214 | 30.12677 | 41140 ft | 522 kts | 147° |
| 2026-05-07 14:03 | 36.81212 | 30.17784 | 41140 ft | 522 kts | 147° |
| 2026-05-07 14:04 | 36.75204 | 30.22874 | 41132 ft | 522 kts | 147° |
| 2026-05-07 14:04 | 36.69229 | 30.27925 | 41126 ft | 522 kts | 147° |
| 2026-05-07 14:05 | 36.63211 | 30.33004 | 41133 ft | 523 kts | 147° |
| 2026-05-07 14:05 | 36.57196 | 30.38072 | 41126 ft | 522 kts | 147° |
| 2026-05-07 14:06 | 36.51190 | 30.43125 | 41118 ft | 521 kts | 147° |
| 2026-05-07 14:06 | 36.45179 | 30.48170 | 41119 ft | 521 kts | 147° |
| 2026-05-07 14:07 | 36.39170 | 30.53205 | 41118 ft | 521 kts | 147° |
| 2026-05-07 14:07 | 36.33167 | 30.58226 | 41110 ft | 520 kts | 147° |
| 2026-05-07 14:08 | 36.27159 | 30.63240 | 41114 ft | 520 kts | 147° |
| 2026-05-07 14:08 | 36.21152 | 30.68245 | 41112 ft | 520 kts | 147° |
| 2026-05-07 14:09 | 36.15145 | 30.73241 | 41112 ft | 520 kts | 147° |
| 2026-05-07 14:09 | 36.09129 | 30.78219 | 41115 ft | 520 kts | 148° |
| 2026-05-07 14:10 | 36.02657 | 30.81879 | 41120 ft | 513 kts | 167° |
| 2026-05-07 14:10 | 35.99168 | 30.82696 | 41123 ft | 509 kts | 178° |
| 2026-05-07 14:10 | 35.95645 | 30.83078 | 41117 ft | 508 kts | 179° |
| 2026-05-07 14:11 | 35.88581 | 30.83506 | 41118 ft | 508 kts | 181° |
| 2026-05-07 14:11 | 35.81517 | 30.83846 | 41123 ft | 508 kts | 181° |
| 2026-05-07 14:12 | 35.74447 | 30.84238 | 41121 ft | 509 kts | 180° |
| 2026-05-07 14:12 | 35.67481 | 30.85971 | 41124 ft | 516 kts | 161° |
| 2026-05-07 14:12 | 35.64238 | 30.87864 | 41129 ft | 518 kts | 150° |
| 2026-05-07 14:13 | 35.61308 | 30.90444 | 41129 ft | 519 kts | 139° |
| 2026-05-07 14:13 | 35.58803 | 30.93634 | 41126 ft | 520 kts | 128° |
| 2026-05-07 14:13 | 35.57392 | 30.96081 | 41121 ft | 519 kts | 120° |
| 2026-05-07 14:13 | 35.55775 | 31.00035 | 41124 ft | 517 kts | 109° |
| 2026-05-07 14:14 | 35.54758 | 31.04251 | 41119 ft | 515 kts | 99° |
| 2026-05-07 14:14 | 35.54352 | 31.08604 | 41123 ft | 512 kts | 88° |
| 2026-05-07 14:14 | 35.54049 | 31.12908 | 41126 ft | 515 kts | 96° |
| 2026-05-07 14:15 | 35.52376 | 31.21476 | 41122 ft | 517 kts | 104° |
| 2026-05-07 14:15 | 35.50299 | 31.29941 | 41125 ft | 518 kts | 106° |
| 2026-05-07 14:16 | 35.48117 | 31.38368 | 41118 ft | 518 kts | 106° |
| 2026-05-07 14:16 | 35.45925 | 31.46792 | 41120 ft | 518 kts | 106° |
| 2026-05-07 14:17 | 35.43740 | 31.55221 | 41125 ft | 518 kts | 106° |
| 2026-05-07 14:17 | 35.41558 | 31.63642 | 41120 ft | 518 kts | 106° |
| 2026-05-07 14:18 | 35.39368 | 31.72070 | 41118 ft | 518 kts | 107° |
| 2026-05-07 14:18 | 35.37175 | 31.80481 | 41119 ft | 518 kts | 107° |
| 2026-05-07 14:19 | 35.34971 | 31.88906 | 41120 ft | 518 kts | 107° |
| 2026-05-07 14:19 | 35.32778 | 31.97260 | 41118 ft | 518 kts | 107° |
| 2026-05-07 14:20 | 35.30567 | 32.05655 | 41117 ft | 518 kts | 107° |
| 2026-05-07 14:20 | 35.28368 | 32.14050 | 41112 ft | 518 kts | 107° |
| 2026-05-07 14:21 | 35.26173 | 32.22451 | 41117 ft | 518 kts | 107° |
| 2026-05-07 14:21 | 35.23976 | 32.30830 | 41114 ft | 518 kts | 107° |
| 2026-05-07 14:22 | 35.21767 | 32.39218 | 41118 ft | 517 kts | 107° |
| 2026-05-07 14:22 | 35.19554 | 32.47592 | 41116 ft | 517 kts | 107° |
| 2026-05-07 14:23 | 35.17336 | 32.55958 | 41114 ft | 517 kts | 107° |
| 2026-05-07 14:23 | 35.15112 | 32.64321 | 41114 ft | 517 kts | 107° |
| 2026-05-07 14:24 | 35.12883 | 32.72676 | 41111 ft | 517 kts | 107° |
| 2026-05-07 14:24 | 35.10647 | 32.81031 | 41106 ft | 517 kts | 107° |
| 2026-05-07 14:25 | 35.08409 | 32.89372 | 41107 ft | 517 kts | 107° |
| 2026-05-07 14:25 | 35.06145 | 32.97713 | 41102 ft | 517 kts | 108° |
| 2026-05-07 14:26 | 35.03757 | 33.06006 | 41100 ft | 518 kts | 109° |
| 2026-05-07 14:26 | 35.01342 | 33.14273 | 41100 ft | 518 kts | 109° |
| 2026-05-07 14:27 | 34.98941 | 33.22558 | 41101 ft | 518 kts | 109° |
| 2026-05-07 14:27 | 34.96543 | 33.30827 | 41102 ft | 517 kts | 109° |
| 2026-05-07 14:28 | 34.94146 | 33.39096 | 41101 ft | 517 kts | 109° |
| 2026-05-07 14:28 | 34.91736 | 33.47362 | 41102 ft | 517 kts | 109° |
| 2026-05-07 14:29 | 34.89321 | 33.55621 | 41101 ft | 517 kts | 109° |
| 2026-05-07 14:29 | 34.86518 | 33.63661 | 41103 ft | 516 kts | 121° |
| 2026-05-07 14:30 | 34.82672 | 33.71029 | 41101 ft | 515 kts | 124° |
| 2026-05-07 14:30 | 34.78647 | 33.78249 | 41101 ft | 515 kts | 125° |
| 2026-05-07 14:31 | 34.74601 | 33.85449 | 41100 ft | 515 kts | 125° |
| 2026-05-07 14:31 | 34.70573 | 33.92649 | 41095 ft | 515 kts | 125° |
| 2026-05-07 14:32 | 34.66546 | 33.99778 | 41091 ft | 515 kts | 126° |
| 2026-05-07 14:32 | 34.62481 | 34.06943 | 41091 ft | 515 kts | 126° |
| 2026-05-07 14:33 | 34.58437 | 34.14111 | 41089 ft | 515 kts | 126° |
| 2026-05-07 14:33 | 34.54393 | 34.21278 | 41089 ft | 514 kts | 126° |
| 2026-05-07 14:34 | 34.50349 | 34.28432 | 41090 ft | 514 kts | 126° |
| 2026-05-07 14:34 | 34.46298 | 34.35580 | 41083 ft | 514 kts | 126° |
| 2026-05-07 14:35 | 34.42261 | 34.42729 | 41085 ft | 514 kts | 126° |
| 2026-05-07 14:35 | 34.38253 | 34.49915 | 41085 ft | 514 kts | 126° |
| 2026-05-07 14:36 | 34.34252 | 34.57083 | 41083 ft | 514 kts | 126° |
| 2026-05-07 14:36 | 34.30240 | 34.64242 | 41079 ft | 514 kts | 126° |
| 2026-05-07 14:37 | 34.26688 | 34.71736 | 41081 ft | 517 kts | 108° |
| 2026-05-07 14:37 | 34.26173 | 34.80293 | 41085 ft | 514 kts | 78° |
| 2026-05-07 14:37 | 34.27247 | 34.84392 | 41083 ft | 511 kts | 62° |
| 2026-05-07 14:38 | 34.29129 | 34.88011 | 41077 ft | 507 kts | 47° |
| 2026-05-07 14:38 | 34.31681 | 34.90902 | 41079 ft | 500 kts | 31° |
| 2026-05-07 14:38 | 34.34694 | 34.92886 | 40969 ft | 483 kts | 17° |
| 2026-05-07 14:38 | 34.37860 | 34.93883 | 40258 ft | 462 kts | 2° |
| 2026-05-07 14:39 | 34.41037 | 34.93878 | 39018 ft | 455 kts | 347° |
| 2026-05-07 14:39 | 34.44060 | 34.92829 | 37409 ft | 452 kts | 331° |
| 2026-05-07 14:39 | 34.46646 | 34.90760 | 36257 ft | 439 kts | 314° |
| 2026-05-07 14:39 | 34.48466 | 34.87979 | 35740 ft | 416 kts | 298° |
| 2026-05-07 14:40 | 34.49465 | 34.84790 | 35162 ft | 400 kts | 282° |
| 2026-05-07 14:40 | 34.49580 | 34.81468 | 34362 ft | 394 kts | 265° |
| 2026-05-07 14:40 | 34.48783 | 34.78299 | 33411 ft | 396 kts | 246° |
| 2026-05-07 14:40 | 34.47140 | 34.75610 | 32429 ft | 401 kts | 227° |
| 2026-05-07 14:41 | 34.44813 | 34.73715 | 31470 ft | 408 kts | 208° |
| 2026-05-07 14:41 | 34.42060 | 34.72878 | 30753 ft | 410 kts | 187° |
| 2026-05-07 14:41 | 34.39241 | 34.73225 | 30148 ft | 408 kts | 168° |
| 2026-05-07 14:41 | 34.36673 | 34.74680 | 29201 ft | 410 kts | 146° |
| 2026-05-07 14:42 | 34.34693 | 34.77118 | 28464 ft | 404 kts | 123° |
| 2026-05-07 14:42 | 34.33554 | 34.80176 | 27668 ft | 396 kts | 101° |
| 2026-05-07 14:42 | 34.33393 | 34.83439 | 26827 ft | 385 kts | 78° |
| 2026-05-07 14:42 | 34.34020 | 34.86527 | 26044 ft | 374 kts | 63° |
| 2026-05-07 14:43 | 34.35064 | 34.89389 | 25275 ft | 369 kts | 59° |
| 2026-05-07 14:43 | 34.36266 | 34.92096 | 24523 ft | 361 kts | 51° |
| 2026-05-07 14:43 | 34.37730 | 34.94518 | 23799 ft | 355 kts | 46° |
| 2026-05-07 14:43 | 34.39244 | 34.96866 | 22975 ft | 351 kts | 46° |
| 2026-05-07 14:44 | 34.40790 | 34.99132 | 22135 ft | 346 kts | 44° |
| 2026-05-07 14:44 | 34.42429 | 35.01232 | 21321 ft | 340 kts | 38° |
| 2026-05-07 14:44 | 34.44229 | 35.03037 | 20532 ft | 333 kts | 32° |
| 2026-05-07 14:44 | 34.46037 | 35.04763 | 19756 ft | 332 kts | 40° |
| 2026-05-07 14:45 | 34.47372 | 35.07040 | 19015 ft | 335 kts | 63° |
| 2026-05-07 14:45 | 34.47921 | 35.09772 | 18261 ft | 336 kts | 86° |
| 2026-05-07 14:45 | 34.47599 | 35.12555 | 17431 ft | 334 kts | 109° |
| 2026-05-07 14:45 | 34.46460 | 35.14970 | 16618 ft | 329 kts | 132° |
| 2026-05-07 14:46 | 34.44704 | 35.16682 | 15797 ft | 322 kts | 154° |
| 2026-05-07 14:46 | 34.42594 | 35.17466 | 15038 ft | 314 kts | 174° |
| 2026-05-07 14:46 | 34.40527 | 35.18244 | 14285 ft | 312 kts | 154° |
| 2026-05-07 14:46 | 34.38655 | 35.19558 | 13497 ft | 310 kts | 150° |
| 2026-05-07 14:47 | 34.36821 | 35.20913 | 12666 ft | 307 kts | 150° |
| 2026-05-07 14:47 | 34.34995 | 35.22228 | 11867 ft | 304 kts | 151° |
| 2026-05-07 14:47 | 34.33204 | 35.23489 | 11093 ft | 300 kts | 151° |
| 2026-05-07 14:47 | 34.31385 | 35.24752 | 10438 ft | 293 kts | 151° |
| 2026-05-07 14:48 | 34.29635 | 35.25959 | 9606 ft | 290 kts | 151° |
| 2026-05-07 14:48 | 34.27876 | 35.27164 | 8683 ft | 291 kts | 151° |
| 2026-05-07 14:48 | 34.26122 | 35.28365 | 7827 ft | 288 kts | 151° |
| 2026-05-07 14:48 | 34.24409 | 35.29536 | 7032 ft | 285 kts | 150° |
| 2026-05-07 14:49 | 34.22706 | 35.30699 | 6373 ft | 277 kts | 150° |
| 2026-05-07 14:49 | 34.21056 | 35.31824 | 6003 ft | 259 kts | 150° |
| 2026-05-07 14:49 | 34.19561 | 35.32843 | 5711 ft | 242 kts | 150° |
| 2026-05-07 14:49 | 34.18138 | 35.33812 | 5416 ft | 228 kts | 150° |
| 2026-05-07 14:50 | 34.16786 | 35.34733 | 5174 ft | 223 kts | 150° |
| 2026-05-07 14:50 | 34.15340 | 35.35720 | 5045 ft | 259 kts | 150° |
| 2026-05-07 14:50 | 34.13723 | 35.36824 | 4857 ft | 268 kts | 150° |
| 2026-05-07 14:50 | 34.12088 | 35.37935 | 4312 ft | 273 kts | 150° |
| 2026-05-07 14:51 | 34.10424 | 35.39063 | 3911 ft | 275 kts | 149° |
| 2026-05-07 14:51 | 34.08742 | 35.40169 | 3574 ft | 275 kts | 151° |
| 2026-05-07 14:51 | 34.07025 | 35.41159 | 3319 ft | 270 kts | 153° |
| 2026-05-07 14:51 | 34.05307 | 35.41938 | 3228 ft | 258 kts | 162° |
| 2026-05-07 14:52 | 34.03622 | 35.42488 | 3155 ft | 244 kts | 163° |
| 2026-05-07 14:52 | 34.02005 | 35.42898 | 3086 ft | 231 kts | 167° |
| 2026-05-07 14:52 | 34.00479 | 35.43294 | 3034 ft | 217 kts | 165° |
| 2026-05-07 14:52 | 33.99061 | 35.43692 | 2995 ft | 201 kts | 165° |
| 2026-05-07 14:53 | 33.97740 | 35.44061 | 2837 ft | 189 kts | 165° |
| 2026-05-07 14:53 | 33.96491 | 35.44408 | 2546 ft | 180 kts | 165° |
| 2026-05-07 14:53 | 33.95286 | 35.44743 | 2320 ft | 177 kts | 165° |
| 2026-05-07 14:53 | 33.94093 | 35.45076 | 2074 ft | 174 kts | 165° |
| 2026-05-07 14:54 | 33.92925 | 35.45402 | 1848 ft | 171 kts | 165° |
| 2026-05-07 14:54 | 33.91773 | 35.45724 | 1614 ft | 168 kts | 165° |
| 2026-05-07 14:54 | 33.90641 | 35.46039 | 1389 ft | 165 kts | 164° |
| 2026-05-07 14:54 | 33.90088 | 35.46194 | 1284 ft | 164 kts | 164° |
| 2026-05-07 14:55 | 33.88925 | 35.46519 | 1059 ft | 164 kts | 166° |
| 2026-05-07 14:55 | 33.87821 | 35.46825 | 830 ft | 162 kts | 166° |
| 2026-05-07 14:55 | 33.86722 | 35.47131 | 637 ft | 162 kts | 165° |
| 2026-05-07 14:55 | 33.85647 | 35.47432 | 412 ft | 154 kts | 163° |
| 2026-05-07 14:56 | 33.84632 | 35.47716 | 223 ft | 146 kts | 164° |
| 2026-05-07 14:56 | 33.83660 | 35.47987 | 73 ft | 141 kts | 165° |
| 2026-05-07 14:56 | 33.82737 | 35.48246 | 62 ft | 125 kts | 168° |
| 2026-05-07 14:56 | 33.82077 | 35.48432 | 63 ft | 68 kts | 155° |
| 2026-05-07 14:57 | 33.81800 | 35.48677 | 76 ft | 34 kts | 135° |
| 2026-05-07 14:57 | 33.81722 | 35.48897 | 85 ft | 21 kts | 107° |
| 2026-05-07 14:57 | 33.81761 | 35.49050 | 80 ft | 20 kts | 25° |
| 2026-05-07 14:57 | 33.81897 | 35.49052 | 89 ft | 20 kts | 357° |
| 2026-05-07 14:58 | 33.82040 | 35.49043 | 85 ft | 21 kts | 356° |
| 2026-05-07 14:58 | 33.82189 | 35.49025 | 81 ft | 21 kts | 1° |
| 2026-05-07 14:58 | 33.82232 | 35.49103 | 80 ft | 12 kts | 109° |
| 2026-05-07 14:58 | 33.82246 | 35.49214 | 82 ft | 16 kts | 62° |
| 2026-05-07 14:59 | 33.82261 | 35.49309 | 85 ft | 0 kts | 83° |
| 2026-05-07 15:35 | 33.82259 | 35.49289 | 85 ft | 3 kts | 83° |
| 2026-05-07 15:35 | 33.82257 | 35.49267 | 89 ft | 3 kts | 91° |
| 2026-05-07 15:35 | 33.82257 | 35.49244 | 81 ft | 3 kts | 77° |
| 2026-05-07 15:36 | 33.82250 | 35.49223 | 83 ft | 3 kts | 57° |
| 2026-05-07 15:36 | 33.82237 | 35.49204 | 78 ft | 3 kts | 35° |
| 2026-05-07 15:36 | 33.82220 | 35.49193 | 79 ft | 3 kts | 14° |